sensor_id;sensor_type;location;lat;lon;timestamp;pressure;altitude;pressure_sealevel;temperature;humidity
61506;BME280;47366;51.916;4.574;2023-07-20T00:02:09;101560.94;;;17.57;78.56
61506;BME280;47366;51.916;4.574;2023-07-20T00:04:34;101553.84;;;17.54;78.84
61506;BME280;47366;51.916;4.574;2023-07-20T00:07:00;101560.94;;;17.57;78.90
61506;BME280;47366;51.916;4.574;2023-07-20T00:09:26;101558.41;;;17.54;78.96
61506;BME280;47366;51.916;4.574;2023-07-20T00:11:52;101553.31;;;17.49;79.03
61506;BME280;47366;51.916;4.574;2023-07-20T00:14:18;101557.81;;;17.50;79.46
61506;BME280;47366;51.916;4.574;2023-07-20T00:16:45;101549.44;;;17.40;78.99
61506;BME280;47366;51.916;4.574;2023-07-20T00:19:14;101559.03;;;17.46;79.22
61506;BME280;47366;51.916;4.574;2023-07-20T00:21:39;101562.63;;;17.47;79.01
61506;BME280;47366;51.916;4.574;2023-07-20T00:24:06;101566.28;;;17.47;79.50
61506;BME280;47366;51.916;4.574;2023-07-20T00:26:31;101555.91;;;17.39;79.07
61506;BME280;47366;51.916;4.574;2023-07-20T00:28:56;101573.44;;;17.37;79.69
61506;BME280;47366;51.916;4.574;2023-07-20T00:31:22;101566.59;;;17.31;79.55
61506;BME280;47366;51.916;4.574;2023-07-20T00:33:47;101563.00;;;17.31;79.87
61506;BME280;47366;51.916;4.574;2023-07-20T00:36:13;101571.22;;;17.31;80.48
61506;BME280;47366;51.916;4.574;2023-07-20T00:38:39;101563.09;;;17.29;80.35
61506;BME280;47366;51.916;4.574;2023-07-20T00:41:04;101566.44;;;17.22;80.38
61506;BME280;47366;51.916;4.574;2023-07-20T00:43:29;101572.69;;;17.24;80.48
61506;BME280;47366;51.916;4.574;2023-07-20T00:45:55;101563.06;;;17.18;80.37
61506;BME280;47366;51.916;4.574;2023-07-20T00:48:21;101563.97;;;17.18;80.02
61506;BME280;47366;51.916;4.574;2023-07-20T00:50:46;101567.16;;;17.12;80.71
61506;BME280;47366;51.916;4.574;2023-07-20T00:53:13;101576.13;;;17.14;80.60
61506;BME280;47366;51.916;4.574;2023-07-20T00:55:39;101561.94;;;17.09;80.34
61506;BME280;47366;51.916;4.574;2023-07-20T00:58:05;101574.38;;;17.13;80.78
61506;BME280;47366;51.916;4.574;2023-07-20T01:00:30;101564.03;;;17.06;80.41
61506;BME280;47366;51.916;4.574;2023-07-20T01:02:56;101574.63;;;17.10;80.31
61506;BME280;47366;51.916;4.574;2023-07-20T01:05:25;101573.66;;;17.11;79.52
61506;BME280;47366;51.916;4.574;2023-07-20T01:07:58;101567.63;;;17.06;80.21
61506;BME280;47366;51.916;4.574;2023-07-20T01:10:29;101581.97;;;17.10;79.84
61506;BME280;47366;51.916;4.574;2023-07-20T01:12:57;101574.09;;;17.05;79.89
61506;BME280;47366;51.916;4.574;2023-07-20T01:15:23;101571.63;;;17.02;79.60
61506;BME280;47366;51.916;4.574;2023-07-20T01:17:48;101567.97;;;17.02;79.10
61506;BME280;47366;51.916;4.574;2023-07-20T01:20:15;101570.09;;;16.98;79.28
61506;BME280;47366;51.916;4.574;2023-07-20T01:28:09;101576.44;;;16.98;79.52
61506;BME280;47366;51.916;4.574;2023-07-20T01:30:56;101577.31;;;16.99;79.01
61506;BME280;47366;51.916;4.574;2023-07-20T01:33:25;101575.81;;;16.95;78.97
61506;BME280;47366;51.916;4.574;2023-07-20T01:35:58;101575.06;;;16.93;79.18
61506;BME280;47366;51.916;4.574;2023-07-20T01:38:25;101566.69;;;16.83;79.54
61506;BME280;47366;51.916;4.574;2023-07-20T01:40:50;101570.53;;;16.81;79.16
61506;BME280;47366;51.916;4.574;2023-07-20T01:43:17;101582.34;;;16.81;79.56
61506;BME280;47366;51.916;4.574;2023-07-20T01:45:43;101593.72;;;16.75;79.95
61506;BME280;47366;51.916;4.574;2023-07-20T01:48:08;101581.19;;;16.60;79.98
61506;BME280;47366;51.916;4.574;2023-07-20T01:50:34;101587.63;;;16.59;80.15
61506;BME280;47366;51.916;4.574;2023-07-20T01:53:00;101598.81;;;16.55;80.25
61506;BME280;47366;51.916;4.574;2023-07-20T01:55:25;101598.19;;;16.52;80.36
61506;BME280;47366;51.916;4.574;2023-07-20T01:57:51;101594.56;;;16.51;79.75
61506;BME280;47366;51.916;4.574;2023-07-20T02:00:16;101596.75;;;16.46;80.23
61506;BME280;47366;51.916;4.574;2023-07-20T02:02:44;101591.00;;;16.38;80.41
61506;BME280;47366;51.916;4.574;2023-07-20T02:05:09;101596.69;;;16.35;80.71
61506;BME280;47366;51.916;4.574;2023-07-20T02:07:34;101596.81;;;16.33;80.57
61506;BME280;47366;51.916;4.574;2023-07-20T02:10:00;101595.38;;;16.28;80.46
61506;BME280;47366;51.916;4.574;2023-07-20T02:12:25;101592.03;;;16.24;80.87
61506;BME280;47366;51.916;4.574;2023-07-20T02:14:50;101587.13;;;16.17;81.01
61506;BME280;47366;51.916;4.574;2023-07-20T02:17:16;101600.56;;;16.20;81.13
61506;BME280;47366;51.916;4.574;2023-07-20T02:19:41;101606.03;;;16.20;80.53
61506;BME280;47366;51.916;4.574;2023-07-20T02:22:07;101610.19;;;16.12;81.44
61506;BME280;47366;51.916;4.574;2023-07-20T02:24:33;101601.38;;;16.09;80.82
61506;BME280;47366;51.916;4.574;2023-07-20T02:26:58;101597.97;;;16.05;80.64
61506;BME280;47366;51.916;4.574;2023-07-20T02:29:24;101597.44;;;16.00;80.88
61506;BME280;47366;51.916;4.574;2023-07-20T02:31:49;101594.94;;;15.97;80.88
61506;BME280;47366;51.916;4.574;2023-07-20T02:34:15;101598.53;;;15.98;81.41
61506;BME280;47366;51.916;4.574;2023-07-20T02:36:41;101598.75;;;15.95;81.10
61506;BME280;47366;51.916;4.574;2023-07-20T02:39:08;101596.44;;;15.88;80.92
61506;BME280;47366;51.916;4.574;2023-07-20T02:41:33;101603.56;;;15.91;81.33
61506;BME280;47366;51.916;4.574;2023-07-20T02:43:59;101597.97;;;15.80;81.23
61506;BME280;47366;51.916;4.574;2023-07-20T02:46:24;101611.63;;;15.80;81.53
61506;BME280;47366;51.916;4.574;2023-07-20T02:48:49;101617.31;;;15.77;81.78
61506;BME280;47366;51.916;4.574;2023-07-20T02:51:15;101603.22;;;15.70;81.86
61506;BME280;47366;51.916;4.574;2023-07-20T02:53:40;101620.06;;;15.77;80.91
61506;BME280;47366;51.916;4.574;2023-07-20T02:56:07;101620.28;;;15.74;81.00
61506;BME280;47366;51.916;4.574;2023-07-20T02:58:34;101623.03;;;15.74;81.22
61506;BME280;47366;51.916;4.574;2023-07-20T03:01:02;101620.91;;;15.64;81.69
61506;BME280;47366;51.916;4.574;2023-07-20T03:03:27;101632.38;;;15.69;81.64
61506;BME280;47366;51.916;4.574;2023-07-20T03:05:53;101621.66;;;15.66;81.69
61506;BME280;47366;51.916;4.574;2023-07-20T03:08:20;101632.47;;;15.68;81.99
61506;BME280;47366;51.916;4.574;2023-07-20T03:10:45;101638.06;;;15.66;81.97
61506;BME280;47366;51.916;4.574;2023-07-20T03:13:10;101630.06;;;15.63;81.91
61506;BME280;47366;51.916;4.574;2023-07-20T03:15:36;101623.94;;;15.60;82.35
61506;BME280;47366;51.916;4.574;2023-07-20T03:18:01;101626.91;;;15.57;82.33
61506;BME280;47366;51.916;4.574;2023-07-20T03:20:28;101627.22;;;15.52;82.44
61506;BME280;47366;51.916;4.574;2023-07-20T03:22:53;101633.25;;;15.57;81.98
61506;BME280;47366;51.916;4.574;2023-07-20T03:25:19;101641.53;;;15.56;81.45
61506;BME280;47366;51.916;4.574;2023-07-20T03:27:44;101636.38;;;15.51;82.37
61506;BME280;47366;51.916;4.574;2023-07-20T03:30:10;101629.59;;;15.44;82.53
61506;BME280;47366;51.916;4.574;2023-07-20T03:32:36;101620.53;;;15.43;82.31
61506;BME280;47366;51.916;4.574;2023-07-20T03:35:02;101619.91;;;15.40;82.57
61506;BME280;47366;51.916;4.574;2023-07-20T03:37:27;101615.50;;;15.37;82.36
61506;BME280;47366;51.916;4.574;2023-07-20T03:39:52;101622.72;;;15.38;82.44
61506;BME280;47366;51.916;4.574;2023-07-20T03:42:18;101619.91;;;15.40;82.36
61506;BME280;47366;51.916;4.574;2023-07-20T03:44:43;101617.91;;;15.42;81.51
61506;BME280;47366;51.916;4.574;2023-07-20T03:47:08;101626.22;;;15.40;82.00
61506;BME280;47366;51.916;4.574;2023-07-20T03:49:34;101625.78;;;15.34;81.80
61506;BME280;47366;51.916;4.574;2023-07-20T03:52:01;101633.88;;;15.35;81.86
61506;BME280;47366;51.916;4.574;2023-07-20T03:54:28;101634.28;;;15.29;81.91
61506;BME280;47366;51.916;4.574;2023-07-20T03:56:54;101637.88;;;15.29;82.15
61506;BME280;47366;51.916;4.574;2023-07-20T03:59:20;101638.31;;;15.23;82.73
61506;BME280;47366;51.916;4.574;2023-07-20T04:01:45;101643.78;;;15.23;82.92
61506;BME280;47366;51.916;4.574;2023-07-20T04:04:11;101644.94;;;15.19;83.13
61506;BME280;47366;51.916;4.574;2023-07-20T04:06:36;101640.38;;;15.20;82.73
61506;BME280;47366;51.916;4.574;2023-07-20T04:09:03;101644.94;;;15.19;82.71
61506;BME280;47366;51.916;4.574;2023-07-20T04:11:30;101643.09;;;15.20;82.46
61506;BME280;47366;51.916;4.574;2023-07-20T04:13:55;101646.59;;;15.22;82.44
61506;BME280;47366;51.916;4.574;2023-07-20T04:16:21;101641.34;;;15.19;82.44
61506;BME280;47366;51.916;4.574;2023-07-20T04:18:47;101643.09;;;15.20;82.64
61506;BME280;47366;51.916;4.574;2023-07-20T04:21:12;101632.31;;;15.18;82.87
61506;BME280;47366;51.916;4.574;2023-07-20T04:23:37;101644.53;;;15.25;83.27
61506;BME280;47366;51.916;4.574;2023-07-20T04:26:03;101649.78;;;15.28;83.07
61506;BME280;47366;51.916;4.574;2023-07-20T04:28:28;101643.25;;;15.31;83.24
61506;BME280;47366;51.916;4.574;2023-07-20T04:30:53;101650.34;;;15.34;83.46
61506;BME280;47366;51.916;4.574;2023-07-20T04:33:19;101647.69;;;15.32;83.37
61506;BME280;47366;51.916;4.574;2023-07-20T04:38:14;101657.44;;;15.36;83.35
61506;BME280;47366;51.916;4.574;2023-07-20T04:40:48;101646.53;;;15.36;83.19
61506;BME280;47366;51.916;4.574;2023-07-20T04:43:14;101649.94;;;15.40;83.35
61506;BME280;47366;51.916;4.574;2023-07-20T04:45:40;101642.78;;;15.37;83.14
61506;BME280;47366;51.916;4.574;2023-07-20T04:48:10;101650.66;;;15.42;83.24
61506;BME280;47366;51.916;4.574;2023-07-20T04:50:43;101654.19;;;15.44;83.32
61506;BME280;47366;51.916;4.574;2023-07-20T04:53:10;101644.34;;;15.41;83.23
61506;BME280;47366;51.916;4.574;2023-07-20T04:55:37;101645.13;;;15.43;83.35
61506;BME280;47366;51.916;4.574;2023-07-20T04:58:03;101652.91;;;15.49;83.19
61506;BME280;47366;51.916;4.574;2023-07-20T05:00:29;101651.91;;;15.50;83.34
61506;BME280;47366;51.916;4.574;2023-07-20T05:02:55;101654.63;;;15.50;83.25
61506;BME280;47366;51.916;4.574;2023-07-20T05:05:21;101655.41;;;15.53;83.43
61506;BME280;47366;51.916;4.574;2023-07-20T05:07:46;101649.84;;;15.54;83.49
61506;BME280;47366;51.916;4.574;2023-07-20T05:10:11;101654.78;;;15.62;82.92
61506;BME280;47366;51.916;4.574;2023-07-20T05:12:37;101659.13;;;15.64;82.53
61506;BME280;47366;51.916;4.574;2023-07-20T05:15:03;101661.53;;;15.69;82.83
61506;BME280;47366;51.916;4.574;2023-07-20T05:17:29;101656.66;;;15.74;81.96
61506;BME280;47366;51.916;4.574;2023-07-20T05:19:54;101652.63;;;15.80;82.07
61506;BME280;47366;51.916;4.574;2023-07-20T05:22:19;101646.63;;;15.87;81.90
61506;BME280;47366;51.916;4.574;2023-07-20T05:24:45;101643.53;;;15.92;81.49
61506;BME280;47366;51.916;4.574;2023-07-20T05:27:10;101640.81;;;15.92;81.31
61506;BME280;47366;51.916;4.574;2023-07-20T05:29:36;101655.78;;;15.99;81.03
61506;BME280;47366;51.916;4.574;2023-07-20T05:32:01;101644.75;;;16.01;81.17
61506;BME280;47366;51.916;4.574;2023-07-20T05:34:28;101654.25;;;16.08;81.11
61506;BME280;47366;51.916;4.574;2023-07-20T05:36:53;101655.78;;;16.12;80.63
61506;BME280;47366;51.916;4.574;2023-07-20T05:39:18;101651.88;;;16.16;80.76
61506;BME280;47366;51.916;4.574;2023-07-20T05:41:44;101647.47;;;16.13;80.92
61506;BME280;47366;51.916;4.574;2023-07-20T05:44:09;101656.00;;;16.22;80.40
61506;BME280;47366;51.916;4.574;2023-07-20T05:46:35;101646.81;;;16.23;81.02
61506;BME280;47366;51.916;4.574;2023-07-20T05:49:00;101656.53;;;16.27;80.35
61506;BME280;47366;51.916;4.574;2023-07-20T05:51:27;101655.19;;;16.32;80.78
61506;BME280;47366;51.916;4.574;2023-07-20T05:53:52;101655.19;;;16.32;80.85
61506;BME280;47366;51.916;4.574;2023-07-20T05:56:17;101662.09;;;16.38;81.05
61506;BME280;47366;51.916;4.574;2023-07-20T05:58:43;101659.25;;;16.40;80.27
61506;BME280;47366;51.916;4.574;2023-07-20T06:01:08;101651.81;;;16.42;79.80
61506;BME280;47366;51.916;4.574;2023-07-20T06:03:34;101666.66;;;16.50;79.80
61506;BME280;47366;51.916;4.574;2023-07-20T06:06:00;101654.41;;;16.56;79.70
61506;BME280;47366;51.916;4.574;2023-07-20T06:08:28;101661.72;;;16.55;80.61
61506;BME280;47366;51.916;4.574;2023-07-20T06:10:53;101648.41;;;16.51;79.88
61506;BME280;47366;51.916;4.574;2023-07-20T06:13:19;101656.34;;;16.54;79.85
61506;BME280;47366;51.916;4.574;2023-07-20T06:15:44;101667.97;;;16.58;80.16
61506;BME280;47366;51.916;4.574;2023-07-20T06:18:09;101668.31;;;16.53;80.42
61506;BME280;47366;51.916;4.574;2023-07-20T06:20:35;101667.44;;;16.52;80.79
61506;BME280;47366;51.916;4.574;2023-07-20T06:23:00;101676.41;;;16.54;80.74
61506;BME280;47366;51.916;4.574;2023-07-20T06:25:26;101660.09;;;16.53;80.52
61506;BME280;47366;51.916;4.574;2023-07-20T06:27:51;101685.16;;;16.60;80.03
61506;BME280;47366;51.916;4.574;2023-07-20T06:30:17;101680.63;;;16.59;80.19
61506;BME280;47366;51.916;4.574;2023-07-20T06:32:43;101693.13;;;16.63;80.05
61506;BME280;47366;51.916;4.574;2023-07-20T06:35:08;101690.28;;;16.64;79.90
61506;BME280;47366;51.916;4.574;2023-07-20T06:37:34;101674.16;;;16.85;79.92
61506;BME280;47366;51.916;4.574;2023-07-20T06:39:59;101678.66;;;17.10;78.49
61506;BME280;47366;51.916;4.574;2023-07-20T06:42:25;101690.34;;;17.36;77.94
61506;BME280;47366;51.916;4.574;2023-07-20T06:44:50;101685.84;;;17.59;77.67
61506;BME280;47366;51.916;4.574;2023-07-20T06:47:16;101670.91;;;17.75;76.84
61506;BME280;47366;51.916;4.574;2023-07-20T06:49:41;101677.38;;;17.98;75.96
61506;BME280;47366;51.916;4.574;2023-07-20T06:52:07;101670.66;;;18.02;74.48
61506;BME280;47366;51.916;4.574;2023-07-20T06:54:32;101670.28;;;18.18;74.44
61506;BME280;47366;51.916;4.574;2023-07-20T06:56:58;101672.03;;;18.30;74.56
61506;BME280;47366;51.916;4.574;2023-07-20T06:59:23;101672.41;;;18.48;73.40
61506;BME280;47366;51.916;4.574;2023-07-20T07:01:49;101680.50;;;18.61;72.71
61506;BME280;47366;51.916;4.574;2023-07-20T07:04:15;101673.13;;;18.73;72.61
61506;BME280;47366;51.916;4.574;2023-07-20T07:06:40;101673.88;;;18.86;71.63
61506;BME280;47366;51.916;4.574;2023-07-20T07:09:06;101674.47;;;19.01;71.29
61506;BME280;47366;51.916;4.574;2023-07-20T07:11:31;101669.81;;;19.13;69.34
61506;BME280;47366;51.916;4.574;2023-07-20T07:13:56;101673.50;;;19.23;69.82
61506;BME280;47366;51.916;4.574;2023-07-20T07:16:22;101676.34;;;19.33;68.98
61506;BME280;47366;51.916;4.574;2023-07-20T07:18:49;101681.22;;;19.40;68.66
61506;BME280;47366;51.916;4.574;2023-07-20T07:21:15;101678.13;;;19.55;68.30
61506;BME280;47366;51.916;4.574;2023-07-20T07:23:40;101682.34;;;19.59;68.24
61506;BME280;47366;51.916;4.574;2023-07-20T07:26:06;101680.25;;;19.83;67.34
61506;BME280;47366;51.916;4.574;2023-07-20T07:28:31;101687.56;;;19.94;67.06
61506;BME280;47366;51.916;4.574;2023-07-20T07:30:59;101681.84;;;20.07;66.41
61506;BME280;47366;51.916;4.574;2023-07-20T07:33:24;101681.19;;;20.14;65.62
61506;BME280;47366;51.916;4.574;2023-07-20T07:35:53;101685.88;;;20.24;65.06
61506;BME280;47366;51.916;4.574;2023-07-20T07:38:19;101690.22;;;20.26;66.29
61506;BME280;47366;51.916;4.574;2023-07-20T07:40:45;101690.66;;;20.31;65.47
61506;BME280;47366;51.916;4.574;2023-07-20T07:43:10;101682.81;;;20.27;65.31
61506;BME280;47366;51.916;4.574;2023-07-20T07:45:37;101675.75;;;20.34;64.77
61506;BME280;47366;51.916;4.574;2023-07-20T07:48:03;101681.44;;;20.42;65.01
61506;BME280;47366;51.916;4.574;2023-07-20T07:50:29;101685.22;;;20.41;65.13
61506;BME280;47366;51.916;4.574;2023-07-20T07:52:55;101685.66;;;20.46;63.53
61506;BME280;47366;51.916;4.574;2023-07-20T07:55:20;101687.63;;;20.55;63.80
61506;BME280;47366;51.916;4.574;2023-07-20T07:57:45;101692.88;;;20.68;64.24
61506;BME280;47366;51.916;4.574;2023-07-20T08:00:13;101685.06;;;20.73;62.56
61506;BME280;47366;51.916;4.574;2023-07-20T08:02:43;101676.13;;;20.91;62.10
61506;BME280;47366;51.916;4.574;2023-07-20T08:05:09;101684.72;;;21.07;61.34
61506;BME280;47366;51.916;4.574;2023-07-20T08:07:35;101679.72;;;20.82;61.50
61506;BME280;47366;51.916;4.574;2023-07-20T08:10:00;101684.78;;;20.67;62.62
61506;BME280;47366;51.916;4.574;2023-07-20T08:12:26;101691.81;;;21.00;62.40
61506;BME280;47366;51.916;4.574;2023-07-20T08:14:52;101684.31;;;21.21;61.95
61506;BME280;47366;51.916;4.574;2023-07-20T08:17:17;101685.78;;;21.45;60.85
61506;BME280;47366;51.916;4.574;2023-07-20T08:19:43;101683.47;;;21.50;61.53
61506;BME280;47366;51.916;4.574;2023-07-20T08:22:09;101680.72;;;21.70;60.38
61506;BME280;47366;51.916;4.574;2023-07-20T08:24:35;101689.97;;;21.88;60.22
61506;BME280;47366;51.916;4.574;2023-07-20T08:27:00;101683.00;;;21.94;59.40
61506;BME280;47366;51.916;4.574;2023-07-20T08:29:25;101682.72;;;21.77;59.67
61506;BME280;47366;51.916;4.574;2023-07-20T08:31:51;101687.09;;;21.41;60.70
61506;BME280;47366;51.916;4.574;2023-07-20T08:34:16;101685.59;;;21.17;60.54
61506;BME280;47366;51.916;4.574;2023-07-20T08:36:42;101679.03;;;20.89;60.23
61506;BME280;47366;51.916;4.574;2023-07-20T08:39:07;101688.31;;;20.88;61.98
61506;BME280;47366;51.916;4.574;2023-07-20T08:41:34;101686.94;;;20.73;61.42
61506;BME280;47366;51.916;4.574;2023-07-20T08:44:00;101677.41;;;20.46;61.30
61506;BME280;47366;51.916;4.574;2023-07-20T08:46:27;101684.44;;;20.29;61.99
61506;BME280;47366;51.916;4.574;2023-07-20T08:48:54;101687.41;;;20.17;62.92
61506;BME280;47366;51.916;4.574;2023-07-20T08:51:21;101687.03;;;20.00;63.01
61506;BME280;47366;51.916;4.574;2023-07-20T08:53:47;101686.63;;;19.84;62.75
61506;BME280;47366;51.916;4.574;2023-07-20T08:56:13;101689.44;;;19.72;63.27
61506;BME280;47366;51.916;4.574;2023-07-20T08:58:43;101679.41;;;19.50;63.68
61506;BME280;47366;51.916;4.574;2023-07-20T09:01:10;101694.69;;;19.43;64.66
61506;BME280;47366;51.916;4.574;2023-07-20T09:03:36;101693.72;;;19.33;64.26
61506;BME280;47366;51.916;4.574;2023-07-20T09:06:05;101693.09;;;19.29;64.04
61506;BME280;47366;51.916;4.574;2023-07-20T09:08:31;101695.63;;;19.21;65.12
61506;BME280;47366;51.916;4.574;2023-07-20T09:10:56;101692.25;;;19.18;65.03
61506;BME280;47366;51.916;4.574;2023-07-20T09:13:21;101688.28;;;19.10;65.35
61506;BME280;47366;51.916;4.574;2023-07-20T09:15:53;101686.19;;;19.03;65.91
61506;BME280;47366;51.916;4.574;2023-07-20T09:18:26;101681.22;;;18.97;66.09
61506;BME280;47366;51.916;4.574;2023-07-20T09:20:53;101692.81;;;19.00;66.28
61506;BME280;47366;51.916;4.574;2023-07-20T09:23:19;101684.09;;;18.95;66.34
61506;BME280;47366;51.916;4.574;2023-07-20T09:25:44;101687.72;;;18.96;66.41
61506;BME280;47366;51.916;4.574;2023-07-20T09:28:15;101687.34;;;18.89;66.39
61506;BME280;47366;51.916;4.574;2023-07-20T09:30:41;101691.81;;;18.90;66.66
61506;BME280;47366;51.916;4.574;2023-07-20T09:33:18;101685.72;;;18.86;66.52
61506;BME280;47366;51.916;4.574;2023-07-20T09:35:43;101687.22;;;18.91;66.66
61506;BME280;47366;51.916;4.574;2023-07-20T09:38:08;101689.06;;;19.01;66.17
61506;BME280;47366;51.916;4.574;2023-07-20T09:40:37;101688.78;;;19.16;66.07
61506;BME280;47366;51.916;4.574;2023-07-20T09:43:07;101686.84;;;19.27;64.95
61506;BME280;47366;51.916;4.574;2023-07-20T09:45:34;101692.81;;;19.65;64.75
61506;BME280;47366;51.916;4.574;2023-07-20T09:48:05;101688.56;;;19.93;63.54
61506;BME280;47366;51.916;4.574;2023-07-20T09:50:32;101689.22;;;20.06;62.92
61506;BME280;47366;51.916;4.574;2023-07-20T09:52:58;101688.00;;;20.51;61.98
61506;BME280;47366;51.916;4.574;2023-07-20T09:55:26;101691.03;;;20.78;61.14
61506;BME280;47366;51.916;4.574;2023-07-20T09:57:52;101682.25;;;21.14;60.71
61506;BME280;47366;51.916;4.574;2023-07-20T10:00:19;101684.03;;;21.34;60.03
61506;BME280;47366;51.916;4.574;2023-07-20T10:02:45;101674.78;;;21.55;58.54
61506;BME280;47366;51.916;4.574;2023-07-20T10:05:13;101681.13;;;21.84;58.81
61506;BME280;47366;51.916;4.574;2023-07-20T10:07:49;101683.84;;;21.94;56.40
61506;BME280;47366;51.916;4.574;2023-07-20T10:10:17;101678.47;;;21.93;58.22
61506;BME280;47366;51.916;4.574;2023-07-20T10:12:44;101682.50;;;22.18;56.36
61506;BME280;47366;51.916;4.574;2023-07-20T10:15:23;101681.25;;;22.02;55.52
61506;BME280;47366;51.916;4.574;2023-07-20T10:17:59;101679.09;;;21.87;56.79
61506;BME280;47366;51.916;4.574;2023-07-20T10:20:27;101686.78;;;21.63;57.41
61506;BME280;47366;51.916;4.574;2023-07-20T10:22:53;101672.75;;;21.67;58.27
61506;BME280;47366;51.916;4.574;2023-07-20T10:25:20;101672.44;;;21.70;57.25
61506;BME280;47366;51.916;4.574;2023-07-20T10:27:48;101666.31;;;21.95;56.49
61506;BME280;47366;51.916;4.574;2023-07-20T10:30:13;101661.66;;;21.86;55.86
61506;BME280;47366;51.916;4.574;2023-07-20T10:32:40;101661.91;;;21.93;55.54
61506;BME280;47366;51.916;4.574;2023-07-20T10:35:17;101669.41;;;22.30;55.78
61506;BME280;47366;51.916;4.574;2023-07-20T10:37:46;101677.69;;;22.67;55.54
61506;BME280;47366;51.916;4.574;2023-07-20T10:40:37;101668.38;;;22.68;54.38
61506;BME280;47366;51.916;4.574;2023-07-20T10:43:07;101663.34;;;22.81;55.28
61506;BME280;47366;51.916;4.574;2023-07-20T10:45:34;101666.47;;;22.96;54.96
61506;BME280;47366;51.916;4.574;2023-07-20T10:48:03;101658.84;;;22.80;54.92
61506;BME280;47366;51.916;4.574;2023-07-20T10:50:29;101657.63;;;22.65;54.82
61506;BME280;47366;51.916;4.574;2023-07-20T10:55:37;101651.72;;;22.22;56.38
61506;BME280;47366;51.916;4.574;2023-07-20T10:58:07;101655.75;;;22.18;56.31
61506;BME280;47366;51.916;4.574;2023-07-20T11:00:33;101653.34;;;22.05;55.99
61506;BME280;47366;51.916;4.574;2023-07-20T11:02:58;101647.47;;;21.81;55.84
61506;BME280;47366;51.916;4.574;2023-07-20T11:05:38;101660.38;;;21.71;55.85
61506;BME280;47366;51.916;4.574;2023-07-20T11:08:05;101658.66;;;21.60;57.15
61506;BME280;47366;51.916;4.574;2023-07-20T11:10:31;101643.84;;;21.61;57.99
61506;BME280;47366;51.916;4.574;2023-07-20T11:13:22;101652.88;;;21.44;55.93
61506;BME280;47366;51.916;4.574;2023-07-20T11:16:01;101644.72;;;21.42;56.63
61506;BME280;47366;51.916;4.574;2023-07-20T11:18:28;101646.91;;;21.58;57.32
61506;BME280;47366;51.916;4.574;2023-07-20T11:20:54;101640.91;;;21.82;57.03
61506;BME280;47366;51.916;4.574;2023-07-20T11:23:20;101643.38;;;21.85;56.00
61506;BME280;47366;51.916;4.574;2023-07-20T11:25:46;101646.13;;;21.85;56.61
61506;BME280;47366;51.916;4.574;2023-07-20T11:28:12;101640.81;;;22.11;55.57
61506;BME280;47366;51.916;4.574;2023-07-20T11:30:37;101632.63;;;22.39;54.60
61506;BME280;47366;51.916;4.574;2023-07-20T11:33:04;101629.56;;;22.69;52.33
61506;BME280;47366;51.916;4.574;2023-07-20T11:35:30;101622.38;;;22.95;51.95
61506;BME280;47366;51.916;4.574;2023-07-20T11:37:55;101623.84;;;23.17;52.87
61506;BME280;47366;51.916;4.574;2023-07-20T11:40:22;101618.19;;;23.36;49.27
61506;BME280;47366;51.916;4.574;2023-07-20T11:42:48;101620.75;;;23.56;50.76
61506;BME280;47366;51.916;4.574;2023-07-20T11:45:16;101621.41;;;23.31;52.73
61506;BME280;47366;51.916;4.574;2023-07-20T11:47:43;101626.81;;;23.59;51.49
61506;BME280;47366;51.916;4.574;2023-07-20T11:50:09;101620.22;;;23.96;50.91
61506;BME280;47366;51.916;4.574;2023-07-20T11:52:34;101611.84;;;23.88;51.69
61506;BME280;47366;51.916;4.574;2023-07-20T11:55:01;101609.56;;;23.83;51.84
61506;BME280;47366;51.916;4.574;2023-07-20T11:57:27;101611.13;;;23.60;51.63
61506;BME280;47366;51.916;4.574;2023-07-20T12:00:02;101618.47;;;23.33;51.70
61506;BME280;47366;51.916;4.574;2023-07-20T12:02:34;101605.22;;;23.01;52.85
61506;BME280;47366;51.916;4.574;2023-07-20T12:04:59;101610.88;;;22.81;53.35
61506;BME280;47366;51.916;4.574;2023-07-20T12:07:27;101598.44;;;22.67;53.70
61506;BME280;47366;51.916;4.574;2023-07-20T12:10:11;101615.47;;;22.63;51.55
61506;BME280;47366;51.916;4.574;2023-07-20T12:12:42;101604.31;;;22.55;53.24
61506;BME280;47366;51.916;4.574;2023-07-20T12:17:46;101615.88;;;22.40;53.92
61506;BME280;47366;51.916;4.574;2023-07-20T12:20:27;101608.38;;;22.33;53.03
61506;BME280;47366;51.916;4.574;2023-07-20T12:22:56;101607.06;;;22.37;52.97
61506;BME280;47366;51.916;4.574;2023-07-20T12:25:22;101601.78;;;22.43;53.40
61506;BME280;47366;51.916;4.574;2023-07-20T12:27:48;101599.03;;;22.43;53.65
61506;BME280;47366;51.916;4.574;2023-07-20T12:30:13;101598.41;;;22.50;53.70
61506;BME280;47366;51.916;4.574;2023-07-20T12:32:39;101596.03;;;22.55;53.66
61506;BME280;47366;51.916;4.574;2023-07-20T12:35:05;101595.34;;;22.53;53.56
61506;BME280;47366;51.916;4.574;2023-07-20T12:37:31;101591.88;;;22.51;53.54
61506;BME280;47366;51.916;4.574;2023-07-20T12:39:56;101594.63;;;22.51;53.61
61506;BME280;47366;51.916;4.574;2023-07-20T12:42:22;101603.91;;;22.50;53.44
61506;BME280;47366;51.916;4.574;2023-07-20T12:44:49;101585.38;;;22.42;53.85
61506;BME280;47366;51.916;4.574;2023-07-20T12:47:16;101592.06;;;22.39;53.43
61506;BME280;47366;51.916;4.574;2023-07-20T12:49:42;101600.34;;;22.39;52.97
61506;BME280;47366;51.916;4.574;2023-07-20T12:52:10;101586.41;;;22.41;53.83
61506;BME280;47366;51.916;4.574;2023-07-20T12:54:36;101585.44;;;22.78;51.88
61506;BME280;47366;51.916;4.574;2023-07-20T12:57:01;101591.69;;;22.80;52.71
61506;BME280;47366;51.916;4.574;2023-07-20T12:59:28;101593.56;;;22.79;52.51
61506;BME280;47366;51.916;4.574;2023-07-20T13:01:53;101581.69;;;22.69;53.08